createdAt,value
2022-10-28T00:00:13.355Z,81.60
2022-10-28T00:02:57.012Z,81.80
2022-10-28T00:05:30.042Z,81.70
2022-10-28T00:07:58.665Z,81.70
2022-10-28T00:10:29.607Z,82.50
2022-10-28T00:13:00.620Z,81.60
2022-10-28T00:15:38.942Z,81.60
2022-10-28T00:18:15.631Z,81.60
2022-10-28T00:20:43.681Z,81.60
2022-10-28T00:23:19.476Z,81.60
2022-10-28T00:25:51.829Z,81.60
2022-10-28T00:28:30.234Z,81.70
2022-10-28T00:31:06.326Z,81.70
2022-10-28T00:33:37.347Z,81.90
2022-10-28T00:36:19.214Z,81.90
2022-10-28T00:38:55.523Z,82.10
2022-10-28T00:41:32.301Z,82.20
2022-10-28T00:44:50.808Z,82.60
2022-10-28T00:47:53.181Z,82.60
2022-10-28T00:50:42.054Z,82.60
2022-10-28T00:53:23.004Z,82.70
2022-10-28T00:56:02.805Z,82.60
2022-10-28T00:58:35.651Z,82.70
2022-10-28T01:01:09.414Z,82.80
2022-10-28T01:03:42.326Z,82.80
2022-10-28T01:06:12.193Z,82.70
2022-10-28T01:08:43.537Z,82.80
2022-10-28T01:11:26.510Z,83.00
2022-10-28T01:14:29.306Z,83.30
2022-10-28T01:17:09.664Z,83.60
2022-10-28T01:19:43.777Z,83.80
2022-10-28T01:22:37.591Z,83.90
2022-10-28T01:25:39.564Z,84.20
2022-10-28T01:28:39.935Z,84.20
2022-10-28T01:31:52.329Z,84.10
2022-10-28T01:34:38.906Z,84.00
2022-10-28T01:37:20.393Z,83.80
2022-10-28T01:39:59.777Z,83.70
2022-10-28T01:42:43.766Z,83.60
2022-10-28T01:45:32.218Z,83.40
2022-10-28T01:51:36.151Z,83.50
2022-10-28T01:54:12.088Z,83.50
2022-10-28T01:56:50.782Z,83.50
2022-10-28T01:59:24.893Z,83.40
2022-10-28T02:01:59.822Z,83.30
2022-10-28T02:04:35.377Z,83.20
2022-10-28T02:07:19.314Z,83.30
2022-10-28T02:10:28.997Z,83.40
2022-10-28T02:13:00.108Z,83.40
2022-10-28T02:16:22.702Z,83.50
2022-10-28T02:23:12.288Z,83.70
2022-10-28T02:25:53.801Z,83.80
2022-10-28T02:28:58.514Z,84.00
2022-10-28T02:31:54.442Z,84.10
2022-10-28T02:34:54.050Z,84.30
2022-10-28T02:37:32.722Z,84.50
2022-10-28T02:40:05.336Z,84.60
2022-10-28T02:42:51.082Z,84.60
2022-10-28T02:49:46.476Z,84.40
2022-10-28T02:52:18.647Z,84.20
2022-10-28T02:55:09.858Z,84.30
2022-10-28T02:57:52.173Z,84.20
2022-10-28T03:00:29.601Z,84.10
2022-10-28T03:03:00.593Z,84.10
2022-10-28T03:05:29.689Z,84.10
2022-10-28T03:08:02.282Z,84.10
2022-10-28T03:10:34.174Z,84.10
2022-10-28T03:13:06.676Z,84.20
2022-10-28T03:15:35.799Z,84.20
2022-10-28T03:18:07.018Z,84.40
2022-10-28T03:20:37.302Z,84.40
2022-10-28T03:23:08.353Z,84.60
2022-10-28T03:25:37.794Z,84.80
2022-10-28T03:28:08.130Z,84.90
2022-10-28T03:30:43.634Z,85.10
2022-10-28T03:33:13.894Z,85.10
2022-10-28T03:35:57.536Z,85.20
2022-10-28T03:38:33.278Z,85.30
2022-10-28T03:41:09.949Z,85.10
2022-10-28T03:43:42.788Z,85.10
2022-10-28T03:46:22.228Z,85.00
2022-10-28T03:48:55.010Z,84.90
2022-10-28T03:51:23.491Z,85.00
2022-10-28T03:53:52.848Z,85.10
2022-10-28T03:56:28.396Z,85.10
2022-10-28T03:59:03.168Z,85.20
2022-10-28T04:01:31.453Z,85.10
2022-10-28T04:04:17.545Z,85.00
2022-10-28T04:06:52.531Z,85.40
2022-10-28T04:09:32.533Z,85.60
2022-10-28T04:12:03.322Z,85.70
2022-10-28T04:14:31.498Z,85.80
2022-10-28T04:17:12.775Z,86.00
2022-10-28T04:19:41.775Z,86.00
2022-10-28T04:22:23.911Z,85.90
2022-10-28T04:27:39.773Z,85.90
2022-10-28T04:30:16.489Z,86.20
2022-10-28T04:32:54.278Z,86.20
2022-10-28T04:35:27.952Z,86.00
2022-10-28T04:37:59.204Z,85.80
2022-10-28T04:40:32.129Z,85.60
2022-10-28T04:43:09.815Z,85.50
2022-10-28T04:45:46.038Z,85.70
2022-10-28T04:48:27.532Z,85.70
2022-10-28T04:50:59.640Z,85.60
2022-10-28T04:53:30.541Z,85.40
2022-10-28T04:56:00.559Z,85.30
2022-10-28T04:58:37.644Z,85.20
2022-10-28T05:01:26.489Z,85.20
2022-10-28T05:03:56.727Z,85.20
2022-10-28T05:06:40.189Z,85.30
2022-10-28T05:09:17.745Z,85.40
2022-10-28T05:11:54.810Z,85.60
2022-10-28T05:14:25.856Z,85.70
2022-10-28T05:17:03.681Z,85.80
2022-10-28T05:19:35.073Z,85.80
2022-10-28T05:22:05.747Z,86.00
2022-10-28T05:24:43.928Z,86.40
2022-10-28T05:27:16.725Z,86.70
2022-10-28T05:29:54.258Z,86.70
2022-10-28T05:32:21.289Z,86.80
2022-10-28T05:34:48.344Z,86.80
2022-10-28T05:37:15.369Z,86.80
2022-10-28T05:39:42.392Z,86.90
2022-10-28T05:42:09.425Z,86.80
2022-10-28T05:44:36.444Z,86.70
2022-10-28T05:47:03.414Z,86.60
2022-10-28T05:49:30.377Z,86.60
2022-10-28T05:51:57.342Z,86.80
2022-10-28T05:54:24.429Z,86.70
2022-10-28T05:56:51.406Z,86.60
2022-10-28T05:59:18.372Z,86.70
2022-10-28T06:01:45.354Z,86.80
2022-10-28T06:04:12.487Z,86.90
2022-10-28T06:06:39.854Z,86.90
2022-10-28T06:09:11.875Z,86.90
2022-10-28T06:11:43.363Z,86.90
2022-10-28T06:14:16.847Z,86.70
2022-10-28T06:26:35.608Z,86.40
2022-10-28T06:43:17.238Z,86.80
2022-10-28T06:49:43.781Z,87.30
2022-10-28T06:52:10.782Z,87.40
2022-10-28T06:55:05.350Z,87.60
2022-10-28T06:58:06.421Z,87.60
2022-10-28T07:00:33.829Z,87.60
2022-10-28T07:03:01.930Z,87.60
2022-10-28T07:05:29.579Z,87.70
2022-10-28T07:07:56.900Z,87.70
2022-10-28T07:10:24.126Z,87.80
2022-10-28T07:12:53.288Z,87.80
2022-10-28T07:15:21.534Z,87.60
2022-10-28T07:17:56.748Z,87.80
2022-10-28T07:20:25.264Z,88.00
2022-10-28T07:23:02.728Z,88.00
2022-10-28T07:25:31.016Z,88.80
2022-10-28T07:27:59.000Z,88.10
2022-10-28T07:30:26.881Z,88.10
2022-10-28T07:32:54.375Z,87.90
2022-10-28T07:35:21.830Z,87.60
2022-10-28T07:37:49.009Z,87.60
2022-10-28T07:40:16.316Z,87.50
2022-10-28T07:42:43.243Z,87.70
2022-10-28T07:45:10.381Z,87.90
2022-10-28T07:47:37.524Z,88.00
2022-10-28T07:50:06.247Z,88.10
2022-10-28T07:52:34.363Z,88.00
2022-10-28T07:55:01.805Z,88.00
2022-10-28T07:57:28.807Z,88.20
2022-10-28T07:59:55.758Z,88.30
2022-10-28T08:02:25.080Z,88.30
2022-10-28T08:04:52.513Z,88.00
2022-10-28T08:07:20.398Z,87.70
2022-10-28T08:09:47.404Z,87.60
2022-10-28T08:12:15.454Z,87.60
2022-10-28T08:14:42.810Z,87.60
2022-10-28T08:17:10.236Z,87.60
2022-10-28T08:19:37.401Z,87.50
2022-10-28T08:22:04.736Z,87.30
2022-10-28T08:24:31.800Z,87.00
2022-10-28T08:26:59.014Z,86.40
2022-10-28T08:29:29.855Z,85.70
2022-10-28T08:31:57.940Z,84.90
2022-10-28T08:34:29.843Z,84.60
2022-10-28T08:36:57.880Z,84.40
2022-10-28T08:39:25.034Z,84.30
2022-10-28T08:42:08.082Z,84.40
2022-10-28T08:44:57.393Z,84.20
2022-10-28T08:47:54.119Z,84.30
2022-10-28T08:50:25.086Z,84.30
2022-10-28T08:52:57.201Z,84.30
2022-10-28T08:55:31.236Z,84.30
2022-10-28T08:58:07.456Z,84.50
2022-10-28T09:00:35.059Z,84.50
2022-10-28T09:03:22.604Z,84.90
2022-10-28T09:06:10.321Z,85.10
2022-10-28T09:08:41.564Z,85.30
2022-10-28T09:11:23.478Z,85.10
2022-10-28T09:14:12.111Z,84.70
2022-10-28T09:16:55.011Z,84.40
2022-10-28T09:19:31.052Z,83.40
2022-10-28T09:22:14.446Z,83.70
2022-10-28T09:24:54.221Z,82.10
2022-10-28T09:27:43.046Z,81.80
2022-10-28T09:30:35.509Z,81.80
2022-10-28T09:33:37.354Z,81.80
2022-10-28T09:36:16.366Z,81.80
2022-10-28T09:38:45.002Z,82.20
2022-10-28T09:41:24.410Z,83.00
2022-10-28T09:43:59.058Z,83.40
2022-10-28T09:46:31.939Z,83.50
2022-10-28T09:49:16.707Z,83.30
2022-10-28T09:51:55.612Z,81.80
2022-10-28T09:54:34.748Z,81.20
2022-10-28T09:57:03.240Z,80.60
2022-10-28T09:59:30.477Z,80.90
2022-10-28T10:01:57.927Z,81.10
2022-10-28T10:04:27.999Z,81.40
2022-10-28T10:07:05.644Z,81.30
2022-10-28T10:09:35.142Z,81.20
2022-10-28T10:12:13.241Z,81.40
2022-10-28T10:14:45.385Z,81.30
2022-10-28T10:17:25.831Z,81.50
2022-10-28T10:20:22.752Z,81.40
2022-10-28T10:22:49.974Z,81.60
2022-10-28T10:25:25.469Z,81.50
2022-10-28T10:27:52.694Z,80.20
2022-10-28T10:30:24.721Z,80.40
2022-10-28T10:32:53.370Z,79.10
2022-10-28T10:35:25.316Z,78.90
2022-10-28T10:37:53.652Z,78.10
2022-10-28T10:40:37.183Z,78.20
2022-10-28T10:43:31.628Z,77.30
2022-10-28T10:46:13.454Z,76.50
2022-10-28T10:48:40.727Z,75.90
2022-10-28T10:51:24.214Z,75.80
2022-10-28T10:53:54.893Z,75.40
2022-10-28T10:56:29.637Z,75.40
2022-10-28T10:59:02.341Z,75.10
2022-10-28T11:01:39.270Z,75.10
2022-10-28T11:04:08.463Z,74.90
2022-10-28T11:06:41.814Z,74.90
2022-10-28T11:09:27.348Z,74.80
2022-10-28T11:11:57.714Z,75.10
2022-10-28T11:14:27.857Z,75.60
2022-10-28T11:16:57.487Z,75.80
2022-10-28T11:19:34.899Z,75.80
2022-10-28T11:22:39.082Z,75.80
2022-10-28T11:25:09.305Z,75.90
2022-10-28T11:28:14.482Z,76.00
2022-10-28T11:31:04.652Z,75.60
2022-10-28T11:34:23.728Z,75.60
2022-10-28T11:37:41.697Z,74.80
2022-10-28T11:40:10.697Z,74.70
2022-10-28T11:42:43.819Z,75.20
2022-10-28T11:45:36.958Z,73.90
2022-10-28T11:48:11.092Z,72.90
2022-10-28T11:50:48.315Z,72.50
2022-10-28T11:53:30.409Z,72.20
2022-10-28T11:56:26.277Z,71.80
2022-10-28T11:59:16.874Z,71.60
2022-10-28T12:02:10.310Z,70.60
2022-10-28T12:05:10.357Z,70.50
2022-10-28T12:07:46.415Z,70.10
2022-10-28T12:10:26.986Z,69.80
2022-10-28T12:13:23.261Z,68.80
2022-10-28T12:15:55.615Z,67.80
2022-10-28T12:18:35.747Z,67.90
2022-10-28T12:21:19.941Z,68.00
2022-10-28T12:23:48.477Z,68.00
2022-10-28T12:26:18.200Z,68.20
2022-10-28T12:28:51.817Z,67.70
2022-10-28T12:31:34.466Z,66.40
2022-10-28T12:34:09.443Z,66.00
2022-10-28T12:36:41.811Z,66.00
2022-10-28T12:39:17.281Z,66.10
2022-10-28T12:42:02.757Z,68.60
2022-10-28T12:44:33.080Z,66.70
2022-10-28T12:47:16.582Z,66.00
2022-10-28T12:50:07.939Z,65.40
2022-10-28T12:53:15.328Z,64.80
2022-10-28T12:56:00.912Z,64.20
2022-10-28T12:58:37.865Z,63.50
2022-10-28T13:01:10.178Z,63.50
2022-10-28T13:03:37.520Z,63.60
2022-10-28T13:06:19.881Z,64.40
2022-10-28T13:09:06.253Z,64.30
2022-10-28T13:12:22.925Z,63.60
2022-10-28T13:15:27.546Z,61.60
2022-10-28T13:17:54.651Z,61.00
2022-10-28T13:20:47.795Z,60.80
2022-10-28T13:23:20.643Z,59.40
2022-10-28T13:26:11.369Z,59.70
2022-10-28T13:28:47.523Z,58.60
2022-10-28T13:31:18.646Z,58.80
2022-10-28T13:33:59.847Z,58.40
2022-10-28T13:36:28.481Z,58.20
2022-10-28T13:39:01.560Z,58.30
2022-10-28T13:41:40.947Z,57.80
2022-10-28T13:44:10.313Z,57.60
2022-10-28T13:46:58.953Z,58.10
2022-10-28T13:49:59.834Z,57.30
2022-10-28T13:52:26.744Z,57.30
2022-10-28T13:54:56.666Z,57.50
2022-10-28T13:57:36.664Z,57.00
2022-10-28T14:00:06.865Z,56.80
2022-10-28T14:02:56.692Z,56.80
2022-10-28T14:05:44.269Z,56.90
2022-10-28T14:08:20.521Z,56.70
2022-10-28T14:11:12.897Z,56.60
2022-10-28T14:14:00.650Z,56.30
2022-10-28T14:16:38.244Z,56.30
2022-10-28T14:19:11.089Z,55.80
2022-10-28T14:21:48.333Z,55.80
2022-10-28T14:24:39.233Z,55.20
2022-10-28T14:27:06.529Z,55.70
2022-10-28T14:29:55.657Z,56.20
2022-10-28T14:32:31.892Z,55.70
2022-10-28T14:35:39.212Z,55.50
2022-10-28T14:38:15.588Z,55.20
2022-10-28T14:40:49.807Z,55.60
2022-10-28T14:43:36.930Z,55.80
2022-10-28T14:46:22.361Z,55.60
2022-10-28T14:48:57.488Z,55.30
2022-10-28T14:51:27.401Z,54.80
2022-10-28T14:53:59.631Z,54.40
2022-10-28T14:56:29.449Z,54.10
2022-10-28T14:59:24.916Z,54.50
2022-10-28T15:02:00.883Z,54.30
2022-10-28T15:04:29.358Z,54.00
2022-10-28T15:07:15.281Z,54.10
2022-10-28T15:09:44.095Z,54.30
2022-10-28T15:12:17.219Z,54.60
2022-10-28T15:14:52.909Z,54.10
2022-10-28T15:17:21.600Z,53.90
2022-10-28T15:20:00.210Z,54.10
2022-10-28T15:22:33.355Z,54.00
2022-10-28T15:25:06.624Z,53.60
2022-10-28T15:27:38.830Z,54.00
2022-10-28T15:30:24.447Z,54.20
2022-10-28T15:32:55.217Z,54.40
2022-10-28T15:43:06.328Z,54.60
2022-10-28T15:45:42.154Z,54.60
2022-10-28T15:48:13.570Z,54.10
2022-10-28T15:50:41.161Z,54.60
2022-10-28T15:57:07.213Z,54.80
2022-10-28T15:59:36.718Z,55.40
2022-10-28T16:02:04.240Z,54.80
2022-10-28T16:04:44.009Z,54.90
2022-10-28T16:07:11.881Z,55.10
2022-10-28T16:09:47.021Z,55.00
2022-10-28T16:12:17.413Z,55.00
2022-10-28T16:14:48.795Z,55.10
2022-10-28T16:17:35.674Z,55.30
2022-10-28T16:20:17.050Z,55.30
2022-10-28T16:22:45.926Z,55.40
2022-10-28T16:25:15.257Z,55.50
2022-10-28T16:27:42.778Z,55.50
2022-10-28T16:30:10.617Z,55.40
2022-10-28T16:32:44.461Z,55.50
2022-10-28T16:35:24.466Z,55.50
2022-10-28T16:37:55.464Z,55.60
2022-10-28T16:40:52.787Z,55.50
2022-10-28T16:43:20.025Z,55.50
2022-10-28T16:45:48.729Z,55.50
2022-10-28T16:48:18.099Z,55.40
2022-10-28T16:50:49.776Z,55.60
2022-10-28T16:53:17.008Z,55.40
2022-10-28T16:55:44.220Z,55.60
2022-10-28T16:58:11.633Z,55.50
2022-10-28T17:00:39.156Z,55.40
2022-10-28T17:03:06.997Z,55.30
2022-10-28T17:05:34.672Z,55.30
2022-10-28T17:08:04.560Z,55.00
2022-10-28T17:10:35.998Z,55.20
2022-10-28T17:13:03.250Z,55.30
2022-10-28T17:15:30.185Z,55.20
2022-10-28T17:17:58.023Z,55.10
2022-10-28T17:20:25.041Z,55.30
2022-10-28T17:22:52.372Z,55.30
2022-10-28T17:25:19.632Z,55.40
2022-10-28T17:27:48.586Z,55.50
2022-10-28T17:30:19.257Z,55.60
2022-10-28T17:32:50.401Z,55.50
2022-10-28T17:35:19.817Z,55.50
2022-10-28T17:37:46.929Z,55.50
2022-10-28T17:40:14.987Z,55.70
2022-10-28T17:42:41.958Z,55.60
2022-10-28T17:45:10.482Z,55.60
2022-10-28T17:47:37.594Z,55.60
2022-10-28T17:50:04.942Z,55.70
2022-10-28T17:52:35.676Z,55.60
2022-10-28T17:55:06.058Z,55.70
2022-10-28T17:57:32.981Z,55.60
2022-10-28T18:00:00.058Z,55.70
2022-10-28T18:02:27.363Z,55.60
2022-10-28T18:04:54.568Z,55.60
2022-10-28T18:07:21.553Z,55.70
2022-10-28T18:09:48.565Z,55.70
2022-10-28T18:12:15.563Z,55.80
2022-10-28T18:14:42.543Z,55.70
2022-10-28T18:17:13.276Z,55.70
2022-10-28T18:19:40.168Z,55.60
2022-10-28T18:22:07.113Z,56.20
2022-10-28T18:24:34.187Z,55.60
2022-10-28T18:27:01.225Z,55.60
2022-10-28T18:29:29.306Z,55.60
2022-10-28T18:31:56.786Z,55.60
2022-10-28T18:34:23.912Z,56.30
2022-10-28T18:36:51.738Z,55.60
2022-10-28T18:39:18.722Z,55.80
2022-10-28T18:41:45.897Z,55.80
2022-10-28T18:44:14.412Z,55.80
2022-10-28T18:46:42.261Z,55.90
2022-10-28T18:49:10.306Z,56.00
2022-10-28T18:51:37.551Z,55.90
2022-10-28T18:54:05.752Z,55.90
2022-10-28T18:56:34.347Z,56.10
2022-10-28T18:59:03.502Z,56.00
2022-10-28T19:01:31.928Z,56.00
2022-10-28T19:04:04.355Z,56.00
2022-10-28T19:06:33.243Z,56.30
2022-10-28T19:09:03.207Z,56.20
2022-10-28T19:11:31.915Z,56.30
2022-10-28T19:14:00.545Z,56.50
2022-10-28T19:16:28.599Z,56.40
2022-10-28T19:18:57.323Z,56.50
2022-10-28T19:21:25.051Z,56.50
2022-10-28T19:23:53.796Z,56.50
2022-10-28T19:26:21.468Z,56.40
2022-10-28T19:28:50.563Z,56.40
2022-10-28T19:31:23.724Z,56.40
2022-10-28T19:33:52.564Z,56.50
2022-10-28T19:36:23.446Z,56.50
2022-10-28T19:38:53.901Z,56.80
2022-10-28T19:41:26.570Z,56.70
2022-10-28T19:44:11.535Z,56.80
2022-10-28T19:46:38.705Z,56.80
2022-10-28T19:49:07.050Z,56.70
2022-10-28T19:51:41.315Z,56.80
2022-10-28T19:54:13.552Z,57.20
2022-10-28T19:56:42.937Z,56.40
2022-10-28T19:59:16.020Z,56.60
2022-10-28T20:01:43.452Z,56.50
2022-10-28T20:04:10.829Z,56.50
2022-10-28T20:06:40.264Z,56.60
2022-10-28T20:09:08.032Z,56.30
2022-10-28T20:11:37.764Z,56.50
2022-10-28T20:14:11.635Z,56.60
2022-10-28T20:16:42.977Z,56.50
2022-10-28T20:19:10.447Z,56.50
2022-10-28T20:21:38.255Z,56.50
2022-10-28T20:24:06.965Z,56.60
2022-10-28T20:26:35.737Z,56.60
2022-10-28T20:29:03.196Z,56.70
2022-10-28T20:31:31.889Z,56.80
2022-10-28T20:34:01.634Z,56.90
2022-10-28T20:36:37.523Z,56.90
2022-10-28T20:39:11.792Z,56.90
2022-10-28T20:41:40.442Z,57.00
2022-10-28T20:44:08.056Z,57.10
2022-10-28T20:46:35.663Z,57.20
2022-10-28T20:49:06.253Z,57.20
2022-10-28T20:51:33.694Z,57.30
2022-10-28T20:54:02.037Z,57.50
2022-10-28T20:56:34.807Z,57.50
2022-10-28T20:59:02.020Z,57.60
2022-10-28T21:01:36.065Z,57.60
2022-10-28T21:04:05.908Z,57.60
2022-10-28T21:06:33.693Z,57.80
2022-10-28T21:09:00.771Z,57.80
2022-10-28T21:11:28.999Z,57.80
2022-10-28T21:13:58.596Z,57.70
2022-10-28T21:16:27.132Z,57.90
2022-10-28T21:18:54.479Z,58.00
2022-10-28T21:21:23.514Z,58.50
2022-10-28T21:23:50.719Z,58.10
2022-10-28T21:26:17.764Z,58.10
2022-10-28T21:28:48.678Z,58.10
2022-10-28T21:31:17.295Z,58.00
2022-10-28T21:33:44.987Z,58.00
2022-10-28T21:36:17.908Z,58.10
2022-10-28T21:38:45.110Z,58.20
2022-10-28T21:41:15.014Z,58.30
2022-10-28T21:43:44.373Z,58.40
2022-10-28T21:46:12.012Z,58.60
2022-10-28T21:48:39.567Z,58.60
2022-10-28T21:51:13.515Z,58.60
2022-10-28T21:53:42.586Z,58.90
2022-10-28T21:56:16.600Z,58.90
2022-10-28T21:58:45.822Z,59.00
2022-10-28T22:01:21.861Z,59.20
2022-10-28T22:03:50.419Z,59.40
2022-10-28T22:06:17.726Z,59.40
2022-10-28T22:08:44.907Z,59.40
2022-10-28T22:11:17.827Z,59.50
2022-10-28T22:13:45.203Z,59.70
2022-10-28T22:16:14.431Z,59.70
2022-10-28T22:18:41.891Z,59.90
2022-10-28T22:21:15.473Z,60.10
2022-10-28T22:23:42.721Z,60.30
2022-10-28T22:26:13.486Z,60.50
2022-10-28T22:28:41.119Z,60.60
2022-10-28T22:31:10.891Z,60.50
2022-10-28T22:33:38.617Z,60.70
2022-10-28T22:36:08.407Z,60.80
2022-10-28T22:38:35.438Z,61.10
2022-10-28T22:41:15.894Z,61.20
2022-10-28T22:43:45.116Z,61.40
2022-10-28T22:46:13.389Z,61.10
2022-10-28T22:48:40.434Z,61.30
2022-10-28T22:51:09.412Z,61.40
2022-10-28T22:53:39.998Z,61.20
2022-10-28T22:56:08.468Z,61.40
2022-10-28T22:58:35.819Z,61.50
2022-10-28T23:01:11.917Z,61.60
2022-10-28T23:03:40.961Z,61.20
2022-10-28T23:06:09.239Z,61.40
2022-10-28T23:08:38.388Z,61.40
2022-10-28T23:11:06.192Z,61.20
2022-10-28T23:13:34.010Z,61.10
2022-10-28T23:16:05.979Z,61.00
2022-10-28T23:18:33.140Z,61.10
2022-10-28T23:21:27.557Z,61.10
2022-10-28T23:23:56.818Z,61.30
2022-10-28T23:26:24.862Z,61.30
2022-10-28T23:28:53.670Z,61.10
2022-10-28T23:31:21.987Z,61.00
2022-10-28T23:33:49.599Z,60.80
2022-10-28T23:36:17.145Z,60.60
2022-10-28T23:38:44.191Z,60.40
2022-10-28T23:41:15.741Z,60.50
2022-10-28T23:43:42.926Z,60.50
2022-10-28T23:46:10.251Z,60.70
2022-10-28T23:48:37.176Z,60.40
2022-10-28T23:51:04.349Z,60.40
2022-10-28T23:53:31.613Z,60.50
2022-10-28T23:55:58.800Z,60.50
2022-10-28T23:58:25.892Z,60.50
